createdAt,value
2024-04-19T00:06:53.120Z,78.95
2024-04-19T00:17:00.759Z,78.59
2024-04-19T00:27:10.678Z,78.40
2024-04-19T00:37:28.132Z,78.75
2024-04-19T00:47:33.228Z,78.83
2024-04-19T00:57:41.234Z,78.51
2024-04-19T01:07:46.178Z,77.89
2024-04-19T01:17:53.803Z,78.10
2024-04-19T01:28:01.182Z,77.51
2024-04-19T01:38:09.860Z,77.16
2024-04-19T01:48:17.300Z,77.14
2024-04-19T01:58:22.117Z,77.65
2024-04-19T02:08:30.493Z,77.90
2024-04-19T02:18:35.282Z,77.45
2024-04-19T02:28:59.374Z,76.40
2024-04-19T02:39:04.136Z,75.84
2024-04-19T02:49:11.464Z,78.20
2024-04-19T02:59:21.900Z,77.88
2024-04-19T03:09:31.955Z,77.56
2024-04-19T03:19:36.650Z,76.51
2024-04-19T03:29:44.130Z,77.00
2024-04-19T03:39:49.041Z,75.87
2024-04-19T03:49:56.850Z,75.75
2024-04-19T04:00:02.685Z,75.35
2024-04-19T04:10:22.003Z,74.15
2024-04-19T04:20:26.807Z,73.00
2024-04-19T04:30:34.381Z,71.17
2024-04-19T04:40:39.195Z,71.98
2024-04-19T04:50:46.616Z,75.07
2024-04-19T05:00:52.519Z,77.25
2024-04-19T05:11:02.027Z,80.90
2024-04-19T05:31:48.149Z,83.49
2024-04-19T05:41:53.047Z,85.23
2024-04-19T05:52:00.433Z,88.51
2024-04-19T06:02:06.536Z,89.46
2024-04-19T06:12:43.702Z,92.19
2024-04-19T06:22:48.473Z,92.73
2024-04-19T06:32:56.100Z,94.46
2024-04-19T06:43:27.886Z,94.57
2024-04-19T06:53:35.309Z,92.32
2024-04-19T07:03:40.266Z,88.73
2024-04-19T07:13:48.947Z,88.49
2024-04-19T07:23:53.801Z,89.80
2024-04-19T07:34:04.800Z,90.01
2024-04-19T07:44:34.416Z,90.00
2024-04-19T07:54:43.623Z,90.74
2024-04-19T08:04:48.907Z,90.64
2024-04-19T08:14:56.513Z,90.26
2024-04-19T08:25:01.310Z,89.54
2024-04-19T08:35:08.925Z,88.66
2024-04-19T08:45:14.864Z,89.77
2024-04-19T08:55:22.742Z,90.04
2024-04-19T09:05:27.580Z,91.43
2024-04-19T09:15:37.972Z,92.35
2024-04-19T09:25:43.256Z,92.07
2024-04-19T09:35:55.502Z,93.07
2024-04-19T09:46:00.461Z,93.63
2024-04-19T09:56:19.136Z,93.43
2024-04-19T10:06:27.081Z,93.74
2024-04-19T10:16:34.619Z,94.24
2024-04-19T10:26:39.531Z,93.50
2024-04-19T10:36:47.099Z,93.34
2024-04-19T10:46:52.784Z,92.80
2024-04-19T10:57:02.760Z,91.98
2024-04-19T11:07:08.087Z,90.30
2024-04-19T11:17:15.497Z,88.85
2024-04-19T11:27:20.288Z,88.98
2024-04-19T11:37:27.649Z,90.55
2024-04-19T11:47:33.292Z,89.96
2024-04-19T11:57:41.572Z,89.30
2024-04-19T12:07:46.576Z,89.38
2024-04-19T12:17:55.811Z,89.85
2024-04-19T12:28:03.900Z,89.36
2024-04-19T12:38:11.360Z,88.71
2024-04-19T12:48:21.085Z,88.48
2024-04-19T12:58:28.833Z,87.65
2024-04-19T13:08:36.807Z,88.58
2024-04-19T13:18:46.529Z,90.05
2024-04-19T13:28:53.418Z,91.20
2024-04-19T13:39:00.805Z,93.40
2024-04-19T13:49:05.504Z,95.13
2024-04-19T13:59:15.538Z,96.89
2024-04-19T14:09:46.438Z,98.01
2024-04-19T14:19:55.297Z,98.34
2024-04-19T14:30:00.057Z,98.52
2024-04-19T14:40:33.454Z,97.57
2024-04-19T14:50:38.536Z,95.91
2024-04-19T15:00:47.216Z,93.75
2024-04-19T15:10:54.548Z,94.38
2024-04-19T15:21:03.328Z,95.05
2024-04-19T15:31:09.526Z,92.26
2024-04-19T15:41:19.446Z,87.35
2024-04-19T15:51:24.904Z,88.47
2024-04-19T16:01:40.060Z,83.09
2024-04-19T16:11:45.133Z,81.84
2024-04-19T16:21:52.607Z,84.74
2024-04-19T16:31:58.538Z,82.66
2024-04-19T16:42:06.232Z,82.19
2024-04-19T16:52:11.728Z,81.48
2024-04-19T17:02:19.119Z,68.39
2024-04-19T17:12:24.870Z,68.19
2024-04-19T17:22:32.309Z,62.83
2024-04-19T17:32:38.016Z,58.17
2024-04-19T17:42:50.862Z,58.36
2024-04-19T17:52:55.851Z,68.22
2024-04-19T18:03:05.497Z,72.28
2024-04-19T18:13:10.230Z,73.40
2024-04-19T18:23:17.542Z,75.63
2024-04-19T18:33:22.689Z,79.29
2024-04-19T18:43:32.110Z,81.95
2024-04-19T18:53:36.758Z,83.52
2024-04-19T19:03:45.416Z,84.54
2024-04-19T19:13:50.519Z,81.85
2024-04-19T19:23:57.796Z,80.78
2024-04-19T19:34:03.174Z,81.16
2024-04-19T19:44:11.343Z,80.89
2024-04-19T19:54:16.056Z,82.34
2024-04-19T20:04:39.543Z,82.08
2024-04-19T20:14:44.290Z,79.84
2024-04-19T20:24:51.731Z,79.08
2024-04-19T20:34:56.459Z,80.56
2024-04-19T20:45:03.770Z,79.51
2024-04-19T20:55:08.730Z,78.96
2024-04-19T21:05:16.050Z,76.84
2024-04-19T21:15:20.756Z,76.92
2024-04-19T21:25:28.102Z,77.95
2024-04-19T21:35:32.884Z,78.32
2024-04-19T21:45:44.112Z,77.77
2024-04-19T21:55:49.290Z,77.34
2024-04-19T22:05:56.827Z,77.80
2024-04-19T22:16:28.373Z,77.89
2024-04-19T22:26:35.783Z,78.09
2024-04-19T22:36:41.228Z,78.54
2024-04-19T22:46:52.154Z,78.68
2024-04-19T22:56:56.851Z,79.14
2024-04-19T23:07:26.237Z,79.77
2024-04-19T23:17:31.691Z,80.72
2024-04-19T23:27:39.414Z,81.61
2024-04-19T23:37:44.147Z,81.65
2024-04-19T23:47:51.579Z,80.74
2024-04-19T23:57:58.110Z,80.84
